Terminal Aerodrome Forecast
Issued by NWS Wilmington, OH

Current Version | Previous Version | Graphics & Text | Print | Product List | Glossary On
Versions: 1 2 3 4 5 6 7 8 9 10 11 12 13 14 15 16 17 18 19 20 21 22 23 24 25 26 27 28 29 30 31
000
FTUS41 KILN 142300
TAFCVG
TAF
KCVG 142330Z 1500/1606 20005KT P6SM OVC025
     FM151700 14009KT P6SM SCT025 BKN250
     FM152200 14009KT P6SM -RA SCT015 OVC050
     FM160200 15008KT P6SM VCSH OVC020=

USA.gov is the U.S. government's official web portal to all federal, state and local government web resources and services.